Cala Paguro — D5KY9 — position and weather

sailwx.info

Track history (hours):
 
Tides and Currents Weather Stations Pressure Air Temp Water Temp Dewpoint Dewpoint Depression Visibility Wind Speed Wind Dir Waves Ship Positions

Cala Paguro

Last reported at 2017-Nov-19 01:00 UTC. Time now 2017-Nov-19 01:14 UTC.
Position N 36°06' W 005°08'.

Length 172 m; draft 7.4 m.

Type: Cargo ship. MMSI: 636017440.

Date/timePositionNaut miles runAvg speedWind from/ knotsBaromVisibWave heightAir tempDewpointWater temp
2017-Nov-19 01:00N 36°06' W 005°08'0 0.8
2017-Nov-19 00:30N 36°06' W 005°08'1 0.1
2017-Nov-18 15:17N 36°07' W 005°09'1 0.5
2017-Nov-18 14:04N 36°07' W 005°08'3 0.7
2017-Nov-18 10:23N 36°06' W 005°11'4 0.9
2017-Nov-18 06:21N 36°08' W 005°07'514.6
2017-Nov-18 06:00N 36°06' W 005°13'714.6
2017-Nov-18 05:30N 36°05' W 005°22'4 8.0
2017-Nov-18 05:00N 36°08' W 005°25'0 0.0
2017-Nov-18 04:30N 36°08' W 005°25'0 0.0
2017-Nov-18 04:00N 36°08' W 005°25'0 0.0
2017-Nov-18 02:15N 36°08' W 005°25'0 0.0
2017-Nov-18 01:54N 36°08' W 005°25'0 0.0
2017-Nov-18 01:30N 36°08' W 005°25'0 0.0
2017-Nov-18 01:00N 36°08' W 005°25'0 0.0
2017-Nov-18 00:27N 36°08' W 005°25'0 0.0
2017-Nov-17 23:57N 36°08' W 005°25'0 0.0
2017-Nov-17 23:30N 36°08' W 005°25'0 0.0
2017-Nov-17 23:00N 36°08' W 005°25'0 0.0
2017-Nov-17 22:30N 36°08' W 005°25'0 0.0
2017-Nov-17 22:00N 36°08' W 005°25'0 0.0
2017-Nov-17 21:30N 36°08' W 005°25'0 0.0
2017-Nov-17 21:00N 36°08' W 005°25'0 0.0
2017-Nov-17 20:27N 36°08' W 005°25'0 0.0
2017-Nov-17 20:00N 36°08' W 005°25'0 0.0
2017-Nov-17 19:06N 36°08' W 005°25'0 0.1
2017-Nov-17 18:54N 36°08' W 005°25'0 0.0
2017-Nov-17 18:18N 36°08' W 005°25'2 3.0
2017-Nov-17 17:48N 36°07' W 005°24'2 7.1
2017-Nov-17 17:29N 36°05' W 005°22'1 1.2
2017-Nov-17 17:00N 36°05' W 005°22'510.7
2017-Nov-17 16:30N 36°05' W 005°15'6 0.4
2017-Nov-16 23:56N 36°09' W 005°09'0 0.4
2017-Nov-16 23:30N 36°09' W 005°09'0 1.0
2017-Nov-16 23:00N 36°09' W 005°08'1 1.3
2017-Nov-16 22:30N 36°09' W 005°08'1 1.7
2017-Nov-16 22:00N 36°09' W 005°07'5 0.2
2017-Nov-16 00:48N 36°04' W 005°09'516.5
2017-Nov-16 00:30N 36°02' W 005°14'816.2
2017-Nov-16 00:00N 35°59' W 005°23'  
2017-Nov-13 02:01N 27°57' W 013°14'714.6
2017-Nov-13 01:31N 27°51' W 013°18'714.5
2017-Nov-13 01:01N 27°46' W 013°23'714.4
2017-Nov-13 00:30N 27°40' W 013°28'714.8
2017-Nov-13 00:01N 27°34' W 013°32'714.7
2017-Nov-12 23:31N 27°28' W 013°37'815.1
2017-Nov-12 23:00N 27°22' W 013°42'815.0
2017-Nov-12 22:30N 27°16' W 013°48'714.6
2017-Nov-12 22:01N 27°10' W 013°53'714.4
2017-Nov-12 21:30N 27°04' W 013°57'814.6
2017-Nov-12 20:59N 26°58' W 014°02'714.8
2017-Nov-12 20:29N 26°52' W 014°07'715.0
2017-Nov-12 20:00N 26°46' W 014°12'815.1
2017-Nov-12 19:30N 26°39' W 014°16'714.9
2017-Nov-12 19:00N 26°33' W 014°21'714.7
2017-Nov-12 18:30N 26°27' W 014°25'814.5
2017-Nov-12 17:58N 26°21' W 014°30'714.5
2017-Nov-12 17:29N 26°15' W 014°35'714.6
2017-Nov-12 17:01N 26°09' W 014°40'814.6
2017-Nov-12 16:27N 26°03' W 014°45'  
Track history (hours):
 
Tides and Currents Weather Stations Pressure Air Temp Water Temp Dewpoint Dewpoint Depression Visibility Wind Speed Wind Dir Waves Ship Positions

Cala Paguro

Last reported at 2017-Nov-19 01:00 UTC. Time now 2017-Nov-19 01:14 UTC.
Position N 36°06' W 005°08'.

Length 172 m; draft 7.4 m.

Type: Cargo ship. MMSI: 636017440.

Date/timePositionNaut miles runAvg speedWind from/ knotsBaromVisibWave heightAir tempDewpointWater temp
2017-Nov-19 01:00N 36°06' W 005°08'0 0.8
2017-Nov-19 00:30N 36°06' W 005°08'1 0.1
2017-Nov-18 15:17N 36°07' W 005°09'1 0.5
2017-Nov-18 14:04N 36°07' W 005°08'3 0.7
2017-Nov-18 10:23N 36°06' W 005°11'4 0.9
2017-Nov-18 06:21N 36°08' W 005°07'514.6
2017-Nov-18 06:00N 36°06' W 005°13'714.6
2017-Nov-18 05:30N 36°05' W 005°22'4 8.0
2017-Nov-18 05:00N 36°08' W 005°25'0 0.0
2017-Nov-18 04:30N 36°08' W 005°25'0 0.0
2017-Nov-18 04:00N 36°08' W 005°25'0 0.0
2017-Nov-18 02:15N 36°08' W 005°25'0 0.0
2017-Nov-18 01:54N 36°08' W 005°25'0 0.0
2017-Nov-18 01:30N 36°08' W 005°25'0 0.0
2017-Nov-18 01:00N 36°08' W 005°25'0 0.0
2017-Nov-18 00:27N 36°08' W 005°25'0 0.0
2017-Nov-17 23:57N 36°08' W 005°25'0 0.0
2017-Nov-17 23:30N 36°08' W 005°25'0 0.0
2017-Nov-17 23:00N 36°08' W 005°25'0 0.0
2017-Nov-17 22:30N 36°08' W 005°25'0 0.0
2017-Nov-17 22:00N 36°08' W 005°25'0 0.0
2017-Nov-17 21:30N 36°08' W 005°25'0 0.0
2017-Nov-17 21:00N 36°08' W 005°25'0 0.0
2017-Nov-17 20:27N 36°08' W 005°25'0 0.0
2017-Nov-17 20:00N 36°08' W 005°25'0 0.0
2017-Nov-17 19:06N 36°08' W 005°25'0 0.1
2017-Nov-17 18:54N 36°08' W 005°25'0 0.0
2017-Nov-17 18:18N 36°08' W 005°25'2 3.0
2017-Nov-17 17:48N 36°07' W 005°24'2 7.1
2017-Nov-17 17:29N 36°05' W 005°22'1 1.2
2017-Nov-17 17:00N 36°05' W 005°22'510.7
2017-Nov-17 16:30N 36°05' W 005°15'6 0.4
2017-Nov-16 23:56N 36°09' W 005°09'0 0.4
2017-Nov-16 23:30N 36°09' W 005°09'0 1.0
2017-Nov-16 23:00N 36°09' W 005°08'1 1.3
2017-Nov-16 22:30N 36°09' W 005°08'1 1.7
2017-Nov-16 22:00N 36°09' W 005°07'5 0.2
2017-Nov-16 00:48N 36°04' W 005°09'516.5
2017-Nov-16 00:30N 36°02' W 005°14'816.2
2017-Nov-16 00:00N 35°59' W 005°23'  
2017-Nov-13 02:01N 27°57' W 013°14'714.6
2017-Nov-13 01:31N 27°51' W 013°18'714.5
2017-Nov-13 01:01N 27°46' W 013°23'714.4
2017-Nov-13 00:30N 27°40' W 013°28'714.8
2017-Nov-13 00:01N 27°34' W 013°32'714.7
2017-Nov-12 23:31N 27°28' W 013°37'815.1
2017-Nov-12 23:00N 27°22' W 013°42'815.0
2017-Nov-12 22:30N 27°16' W 013°48'714.6
2017-Nov-12 22:01N 27°10' W 013°53'714.4
2017-Nov-12 21:30N 27°04' W 013°57'814.6
2017-Nov-12 20:59N 26°58' W 014°02'714.8
2017-Nov-12 20:29N 26°52' W 014°07'715.0
2017-Nov-12 20:00N 26°46' W 014°12'815.1
2017-Nov-12 19:30N 26°39' W 014°16'714.9
2017-Nov-12 19:00N 26°33' W 014°21'714.7
2017-Nov-12 18:30N 26°27' W 014°25'814.5
2017-Nov-12 17:58N 26°21' W 014°30'714.5
2017-Nov-12 17:29N 26°15' W 014°35'714.6
2017-Nov-12 17:01N 26°09' W 014°40'814.6
2017-Nov-12 16:27N 26°03' W 014°45'  

Dump ship's entire track history